Aeroboteco Virtual Airlines! Uma nuvem a frente.



 INFORMAÇÕES METEOROLÓGICAS
METAR FOR LSZS
ADDS - METARS form results

(2043 UTC 20 May 2022)
Data provider http://aviationweather.gov/metar/data/
 
METAR text: LSZS 202020Z AUTO 01010KT 9999 //////TCU 13/08 Q1028
Conditions at: LSZS (SAMEDAN , CH) observed 2020 UTC 20 May 2022
Temperature: 13.0°C (55°F)
Dewpoint: 8.0°C (46°F) [RH = 72%]
Pressure (altimeter): 30.35 inches Hg (1028.0 mb)
Winds: from the N (10 degrees) at 12 MPH (10 knots; 5.1 m/s)
Visibility: 6 or more miles (10+ km)
Ceiling: unknown
Clouds: missing
Weather: no significant weather observed at this time

METAR text: LSZS 201950Z AUTO 16015G26KT 130V200 9999 -RA FEW060TCU SCT070 BKN080 15/07 Q1029
Conditions at: LSZS (SAMEDAN , CH) observed 1950 UTC 20 May 2022
Temperature: 15.0°C (59°F)
Dewpoint: 7.0°C (45°F) [RH = 59%]
Pressure (altimeter): 30.38 inches Hg (1029.0 mb)
Winds: from the SSE (160 degrees) at 17 MPH (15 knots; 7.7 m/s)
gusting to 30 MPH (26 knots; 13.4 m/s)
Visibility: 6 or more miles (10+ km)
Ceiling: 8000 feet AGL
Clouds: few clouds at 6000 feet AGL
scattered clouds at 7000 feet AGL
broken clouds at 8000 feet AGL
Weather: -RA  (light rain)

Forecast for: LSZS (SAMEDAN , CH)
Text: TAF LSZS 201425Z 2015/2024 22013KT 9999 FEW085 TX22/2015Z
Forecast period: 1500 to 1800 UTC 20 May 2022
Forecast type: FROM: standard forecast or significant change
Winds: from the SW (220 degrees) at 15 MPH (13 knots; 6.7 m/s)
Visibility: 6 or more miles (10+ km)
Ceiling: at least 12,000 feet AGL
Clouds: few clouds at 8500 feet AGL
Weather: no significant weather forecast for this period
Text: PROB30 2016/2018 TSRA FEW050CB
Forecast period: 1600 to 1800 UTC 20 May 2022
Forecast type: PROBABLE: 30 percent likelihood of the following during this time
Visibility: missing
Ceiling: at least 12,000 feet AGL
Clouds: few clouds at 5000 feet AGL
Weather: TSRA  (rain associated with thunderstorm(s))
Text: BECMG 2018/2021 VRB02KT
Forecast period: 1800 UTC 20 May 2022 to 0000 UTC 21 May 2022
Forecast type: BECOMING: Conditions expected to become as follows by 2100 UTC 20 May 2022
Winds: variable direction winds at 2 MPH (2 knots; 1.0 m/s)
Visibility: 6 or more miles (10+ km)
Ceiling: at least 12,000 feet AGL
Clouds: few clouds at 8500 feet AGL
Weather: no significant weather forecast for this period

 MAPA DO AEROPORTO

 INFORMAÇÕES DA PISTA
Pista 03 Tamanho da pista 5905 ft Largura da pista 130 ft
Elevação da pista 5600 ft Ranhura da pista 0 ft Proa da pista 29
Pista 21 Tamanho da pista 5905 ft Largura da pista 130 ft
Elevação da pista 5574 ft Ranhura da pista 360 ft Proa da pista 209

 FREQUÊNCIAS DO AEROPORTO
Tipo A/G Nome GLIDER Frequência 123.67 MHZ
Tipo ATIS Nome ATIS Frequência 136.6 MHZ
Tipo GND Nome GND Frequência 121.6 MHZ
Tipo INFO Nome INFO Frequência 138.05 MHZ
Tipo TWR Nome TWR Frequência 135.325 MHZ

 AUXÍLIOS DE NAVEGAÇÃO PRÓXIMOS AO AEROPORTO